Flight Track Log - Related Links

Times and Time Zones

All times are in EDT time to prevent confusion due to time zone crossing. See the ENY3615 flight status page for this flight to view local times or setup timezone preferences in your user account.

Time Position Orientation Groundspeed Altitude Reporting Facility
EDT Latitude Longitude Course Direction KTS MPH feet Rate Location/Type
Tue 09:30:38 AM 46.8869 -96.7922 108° East 182 209 2,100  Level Minneapolis Center
Tue 09:31:40 AM 46.8731 -96.7100 104° East 216 249 4,300 1,790 Climbing Minneapolis Center
Tue 09:32:00 AM 46.8267 -96.3966 105° East  Level FlightAware Approximate
Tue 09:32:42 AM 46.8550 -96.6069 104° East 252 290 5,800  Level Minneapolis Center
Tue 09:33:00 AM 46.8013 -96.2571 105° East  Level FlightAware Approximate
Tue 09:33:43 AM 46.8317 -96.4864 106° East 292 336 8,200  Level Minneapolis Center
Tue 09:34:00 AM 46.7809 -96.1159 102° East  Level FlightAware Approximate
Tue 09:34:45 AM 46.8083 -96.3642 106° East 296 341 10,300  Level Minneapolis Center
Tue 09:35:00 AM 46.7575 -95.9760 108° East  Level FlightAware Approximate
Tue 09:35:47 AM 46.7825 -96.2275 105° East 335 386 11,400  Level Minneapolis Center
Tue 09:36:49 AM 46.7564 -96.0875 105° East 367 422 12,600 1,268 Climbing Minneapolis Center
Tue 09:37:50 AM 46.7272 -95.9333 105° East 382 440 14,000 1,366 Climbing Minneapolis Center
Tue 09:38:52 AM 46.6964 -95.7719 106° East 391 450 15,400 1,452 Climbing Minneapolis Center
Tue 09:39:54 AM 46.6667 -95.6111 105° East 393 452 17,000 1,355 Climbing Minneapolis Center
Tue 09:40:56 AM 46.6369 -95.4633 106° East 394 453 18,200 1,073 Climbing Minneapolis Center
Tue 09:41:57 AM 46.6097 -95.3256 106° East 391 450 19,200 1,073 Climbing Minneapolis Center
Tue 09:42:59 AM 46.5747 -95.1436 106° East 391 450 20,400 1,065 Climbing Minneapolis Center
Tue 09:44:01 AM 46.5431 -94.9861 106° East 404 465 21,400 1,016 Climbing Minneapolis Center
Tue 09:45:03 AM 46.5114 -94.8244 106° East 414 476 22,500 1,016 Climbing Minneapolis Center
Tue 09:46:05 AM 46.4772 -94.6597 107° East 423 487 23,500 976 Climbing Minneapolis Center
Tue 09:47:06 AM 46.4431 -94.4908 106° East 434 499 24,500 976 Climbing Minneapolis Center
Tue 09:48:08 AM 46.4075 -94.3208 107° East 437 503 25,500 1,065 Climbing Minneapolis Center
Tue 09:49:10 AM 46.3656 -94.1142 106° East 444 511 26,700 1,065 Climbing Minneapolis Center
Tue 09:50:12 AM 46.2847 -93.9825 132° Southeast 435 501 27,700 1,073 Climbing Minneapolis Center
Tue 09:51:13 AM 46.1997 -93.8444 132° Southeast 435 501 28,900 1,122 Climbing Minneapolis Center
Tue 09:52:15 AM 46.1200 -93.7106 131° Southeast 435 501 30,000 1,016 Climbing Minneapolis Center
Tue 09:53:17 AM 46.0392 -93.5786 131° Southeast 436 502 31,000 484 Climbing Minneapolis Center
Tue 09:54:19 AM 45.9556 -93.4436 132° Southeast 445 512 31,000  Level Minneapolis Center
Tue 09:55:21 AM 45.8678 -93.2992 131° Southeast 470 541 31,000  Level Minneapolis Center
Tue 09:56:22 AM 45.7797 -93.1525 131° Southeast 479 551 31,000  Level Minneapolis Center
Tue 09:57:24 AM 45.6911 -93.0114 132° Southeast 479 551 31,000  Level Minneapolis Center
Tue 09:58:26 AM 45.6028 -92.8700 132° Southeast 478 550 31,000  Level Minneapolis Center
Tue 09:59:28 AM 45.4969 -92.6997 132° Southeast 478 550 31,000  Level Minneapolis Center
Tue 10:00:30 AM 45.4089 -92.5608 132° Southeast 476 548 31,000  Level Minneapolis Center
Tue 10:01:32 AM 45.3200 -92.4211 132° Southeast 476 548 31,000  Level Minneapolis Center
Tue 10:02:34 AM 45.2319 -92.2831 132° Southeast 475 547 31,000  Level Minneapolis Center
Tue 10:03:35 AM 45.1428 -92.1439 132° Southeast 475 547 31,000  Level Minneapolis Center
Tue 10:04:37 AM 45.0553 -92.0061 132° Southeast 474 545 31,000  Level Minneapolis Center
Tue 10:05:39 AM 44.9664 -91.8697 133° Southeast 473 544 31,000  Level Minneapolis Center
Tue 10:06:41 AM 44.8572 -91.7047 133° Southeast 475 547 31,000  Level Minneapolis Center
Tue 10:07:42 AM 44.7686 -91.5678 132° Southeast 476 548 31,000  Level Minneapolis Center
Tue 10:08:44 AM 44.6786 -91.4325 133° Southeast 476 548 31,000  Level Minneapolis Center
Tue 10:09:46 AM 44.5914 -91.2983 132° Southeast 471 542 31,000  Level Minneapolis Center
Tue 10:10:48 AM 44.5028 -91.1639 133° Southeast 471 542 31,000  Level Minneapolis Center
Tue 10:11:49 AM 44.4150 -91.0333 133° Southeast 466 536 31,000  Level Minneapolis Center
Tue 10:12:51 AM 44.3203 -90.8897 133° Southeast 459 528 31,000  Level Minneapolis Center
Tue 10:13:53 AM 44.2347 -90.7633 133° Southeast 454 522 31,000  Level Minneapolis Center
Tue 10:14:55 AM 44.1497 -90.6364 133° Southeast 452 520 31,000  Level Minneapolis Center
Tue 10:15:56 AM 44.0653 -90.5119 133° Southeast 447 514 31,000  Level Minneapolis Center
Tue 10:16:58 AM 43.9814 -90.3894 134° Southeast 441 507 31,000 -48 Level Minneapolis Center
Tue 10:18:00 AM 43.8803 -90.2417 133° Southeast 440 506 30,900 -341 Descending Minneapolis Center
Tue 10:19:01 AM 43.7947 -90.1158 133° Southeast 444 511 30,300 -683 Descending Minneapolis Center
Tue 10:20:03 AM 43.7086 -89.9917 134° Southeast 446 513 29,500 -774 Descending Minneapolis Center
Tue 10:21:05 AM 43.6219 -89.8661 134° Southeast 450 518 28,700 -783 Descending Minneapolis Center
Tue 10:21:35 AM 43.5683 -89.7933 135° Southeast 452 520 28,300 -783 Descending Chicago Center
Tue 10:22:37 AM 43.4753 -89.6856 140° Southeast 442 509 27,500 -774 Descending Chicago Center
Tue 10:23:39 AM 43.3886 -89.5708 136° Southeast 440 506 26,700 -1,258 Descending Chicago Center
Tue 10:24:41 AM 43.3131 -89.4494 131° Southeast 422 486 24,900 -2,081 Descending Chicago Center
Tue 10:25:43 AM 43.2372 -89.3347 132° Southeast 411 473 22,400 -2,371 Descending Chicago Center
Tue 10:26:45 AM 43.1678 -89.2389 135° Southeast 373 429 20,000 -3,097 Descending Chicago Center
Tue 10:27:47 AM 43.0656 -89.1622 151° Southeast 353 406 16,000 -2,903 Descending Chicago Center
Tue 10:28:49 AM 42.9869 -89.0831 144° Southeast 353 406 14,000 -1,024 Descending Chicago Center
Tue 10:29:50 AM 42.9094 -89.0272 152° Southeast 325 374 13,900 49 Descending Chicago Center
Tue 10:30:52 AM 42.8292 -88.9642 150° Southeast 328 377 14,100  Climbing Chicago Center
Tue 10:31:54 AM 42.7547 -88.8917 144° Southeast 329 379 13,900 -677 Descending Chicago Center
Tue 10:32:56 AM 42.6786 -88.7867 135° Southeast 341 392 12,700 -1,161 Descending Chicago Center
Tue 10:33:58 AM 42.6233 -88.6889 128° Southeast 335 386 11,500 -823 Descending Chicago Center
Tue 10:35:00 AM 42.5783 -88.5819 120° Southeast 330 380 11,000 -242 Descending Chicago Center
Tue 10:36:02 AM 42.5397 -88.4753 116° Southeast 323 372 11,000 -48 Level Chicago Center
Tue 10:37:04 AM 42.4725 -88.4347 156° South 305 351 10,900 -49 Descending Chicago Center
Tue 10:38:05 AM 42.3967 -88.4464 186° South 292 336 10,900 -49 Level Chicago Center
Tue 10:39:07 AM 42.3283 -88.3544 135° Southeast 309 356 10,800 -581 Descending Chicago Center
Tue 10:40:09 AM 42.2700 -88.2617 130° Southeast 300 345 9,700 -1,065 Descending Chicago Center
Tue 10:41:11 AM 42.2142 -88.1775 132° Southeast 302 348 8,600 -1,113 Descending Chicago Center
Tue 10:42:13 AM 42.1508 -88.0947 136° Southeast 297 342 7,400 -780 Descending Chicago Center
Tue 10:43:14 AM 42.0922 -88.0203 137° Southeast 293 337 7,000 -195 Descending Chicago Center
Tue 10:44:16 AM 42.0908 -87.9064 91° East 303 349 7,000  Level Chicago Center
Tue 10:45:18 AM 42.0914 -87.7869 90° East 299 344 7,000 -48 Level Chicago Center
Tue 10:46:20 AM 42.0917 -87.6772 90° East 297 342 6,900 -683 Descending Chicago Center
Tue 10:47:21 AM 42.0917 -87.5792 90° East 263 303 5,600 -1,073 Descending Chicago Center
Tue 10:48:23 AM 42.0908 -87.4761 91° East 257 296 4,700 -774 Descending Chicago Center
Tue 10:49:25 AM 42.0947 -87.3828 87° East 253 291 4,000 -341 Descending Chicago Center
Tue 10:50:26 AM 42.0583 -87.3239 130° Southeast 244 281 4,000  Level Chicago Center
Tue 10:51:28 AM 42.0103 -87.3783 220° Southwest 211 243 4,000  Level Chicago Center
Tue 10:52:30 AM 41.9819 -87.4464 241° Southwest 212 244 4,000  Level Chicago Center
Tue 10:53:31 AM 41.9844 -87.5278 272° West 205 236 4,000 -49 Level Chicago Center
Tue 10:54:33 AM 41.9842 -87.6014 270° West 203 234 3,900 -48 Descending Chicago Center
Tue 10:55:35 AM 41.9844 -87.6631 270° West 173 199 3,900 -537 Level Chicago Center
Tue 10:56:36 AM 41.9842 -87.7336 270° West 173 199 2,800 -976 Descending Chicago Center
Tue 10:57:38 AM 41.9850 -87.8031 271° West 183 211 1,900 -829 Descending Chicago Center
Tue 10:58:39 AM 41.9842 -87.8594 269° West 156 180 1,100 -537 Descending Chicago Center
Tue 10:59:41 AM 41.9847 -87.9083 271° West 149 171 800 -290 Descending Chicago Center

Login

Don't have an account? Register now (free) for customized features, flight alerts, and more!